createdAt,value
2023-07-15T00:01:24.538Z,15.02
2023-07-15T00:03:53.392Z,13.98
2023-07-15T00:06:22.437Z,15.20
2023-07-15T00:08:50.190Z,15.95
2023-07-15T00:11:21.228Z,15.65
2023-07-15T00:13:48.184Z,15.30
2023-07-15T00:16:15.278Z,16.05
2023-07-15T00:18:42.609Z,14.68
2023-07-15T00:21:23.923Z,16.13
2023-07-15T00:26:25.588Z,15.52
2023-07-15T00:28:53.016Z,18.00
2023-07-15T00:31:21.071Z,16.23
2023-07-15T00:33:48.528Z,17.55
2023-07-15T00:36:17.015Z,17.52
2023-07-15T00:38:45.090Z,17.33
2023-07-15T00:41:29.854Z,16.88
2023-07-15T00:44:07.978Z,16.48
2023-07-15T00:46:50.236Z,17.55
2023-07-15T00:49:31.766Z,15.40
2023-07-15T00:52:03.720Z,15.05
2023-07-15T00:54:36.502Z,15.63
2023-07-15T00:57:04.335Z,15.20
2023-07-15T01:01:59.419Z,16.83
2023-07-15T01:04:26.362Z,15.40
2023-07-15T01:06:54.995Z,16.92
2023-07-15T01:09:23.678Z,17.42
2023-07-15T01:11:50.572Z,16.35
2023-07-15T01:14:17.560Z,16.98
2023-07-15T01:16:49.072Z,16.23
2023-07-15T01:19:20.121Z,16.73
2023-07-15T01:21:52.179Z,16.92
2023-07-15T01:24:22.563Z,17.50
2023-07-15T01:27:03.176Z,16.45
2023-07-15T01:29:30.291Z,16.48
2023-07-15T01:31:57.258Z,15.95
2023-07-15T01:34:24.409Z,17.33
2023-07-15T01:36:52.256Z,16.08
2023-07-15T01:39:19.257Z,15.57
2023-07-15T01:41:46.122Z,16.70
2023-07-15T01:44:13.945Z,16.60
2023-07-15T01:46:41.284Z,16.60
2023-07-15T01:49:09.917Z,16.90
2023-07-15T01:51:37.021Z,17.58
2023-07-15T01:54:04.624Z,17.17
2023-07-15T01:56:31.812Z,15.82
2023-07-15T01:59:00.160Z,15.77
2023-07-15T02:01:28.174Z,15.88
2023-07-15T02:03:55.614Z,16.98
2023-07-15T02:06:23.335Z,18.55
2023-07-15T02:08:50.469Z,18.00
2023-07-15T02:11:17.726Z,18.73
2023-07-15T02:13:44.662Z,17.98
2023-07-15T02:16:11.621Z,18.40
2023-07-15T02:18:38.572Z,18.58
2023-07-15T02:21:05.703Z,17.05
2023-07-15T02:23:32.618Z,17.58
2023-07-15T02:25:59.787Z,19.55
2023-07-15T02:28:28.409Z,18.58
2023-07-15T02:30:56.753Z,18.58
2023-07-15T02:33:25.363Z,18.83
2023-07-15T02:35:53.057Z,17.63
2023-07-15T02:38:20.688Z,18.17
2023-07-15T02:40:49.555Z,18.38
2023-07-15T02:43:17.056Z,18.30
2023-07-15T02:45:43.959Z,18.73
2023-07-15T02:48:12.090Z,17.88
2023-07-15T02:50:39.023Z,16.90
2023-07-15T02:53:06.034Z,16.33
2023-07-15T02:55:32.961Z,16.73
2023-07-15T02:58:00.234Z,17.33
2023-07-15T03:00:27.733Z,17.60
2023-07-15T03:02:54.967Z,16.90
2023-07-15T03:05:22.088Z,15.82
2023-07-15T03:07:49.529Z,16.63
2023-07-15T03:10:16.799Z,17.67
2023-07-15T03:12:49.105Z,15.32
2023-07-15T03:15:17.069Z,16.33
2023-07-15T03:17:44.862Z,15.38
2023-07-15T03:20:21.359Z,14.75
2023-07-15T03:22:53.346Z,16.75
2023-07-15T03:25:21.212Z,16.38
2023-07-15T03:27:52.419Z,16.60
2023-07-15T03:30:19.927Z,14.70
2023-07-15T03:32:47.831Z,14.95
2023-07-15T03:35:16.237Z,14.82
2023-07-15T03:37:45.562Z,14.95
2023-07-15T03:40:13.744Z,15.63
2023-07-15T03:42:41.796Z,14.20
2023-07-15T03:45:09.865Z,15.65
2023-07-15T03:47:37.262Z,15.48
2023-07-15T03:50:08.407Z,14.55
2023-07-15T03:52:35.374Z,14.98
2023-07-15T03:55:04.331Z,14.52
2023-07-15T03:57:31.211Z,14.82
2023-07-15T03:59:58.173Z,15.70
2023-07-15T04:02:25.230Z,14.60
2023-07-15T04:04:52.219Z,15.43
2023-07-15T04:07:19.551Z,16.08
2023-07-15T04:09:46.758Z,16.02
2023-07-15T04:12:13.628Z,14.05
2023-07-15T04:14:40.516Z,16.58
2023-07-15T04:17:07.451Z,17.65
2023-07-15T04:19:34.476Z,17.58
2023-07-15T04:22:01.430Z,16.63
2023-07-15T04:24:28.255Z,17.02
2023-07-15T04:26:55.149Z,16.75
2023-07-15T04:29:22.371Z,17.50
2023-07-15T04:31:49.353Z,17.77
2023-07-15T04:34:16.415Z,18.23
2023-07-15T04:36:43.272Z,19.23
2023-07-15T04:39:10.323Z,17.52
2023-07-15T04:41:37.128Z,18.65
2023-07-15T04:44:04.064Z,18.65
2023-07-15T04:46:32.070Z,20.40
2023-07-15T04:48:59.282Z,20.58
2023-07-15T04:51:26.466Z,21.35
2023-07-15T04:53:53.500Z,22.13
2023-07-15T04:56:20.408Z,20.65
2023-07-15T04:58:47.322Z,21.25
2023-07-15T05:01:14.767Z,19.27
2023-07-15T05:03:42.809Z,22.17
2023-07-15T05:06:10.302Z,20.98
2023-07-15T05:08:38.687Z,20.45
2023-07-15T05:11:05.865Z,24.10
2023-07-15T05:13:32.997Z,22.60
2023-07-15T05:16:00.513Z,21.60
2023-07-15T05:18:27.536Z,20.75
2023-07-15T05:20:54.502Z,21.83
2023-07-15T05:23:23.289Z,22.52
2023-07-15T05:28:17.048Z,20.52
2023-07-15T05:30:43.925Z,20.95
2023-07-15T05:33:10.849Z,21.10
2023-07-15T05:35:37.799Z,20.52
2023-07-15T05:38:04.807Z,21.77
2023-07-15T05:40:31.903Z,20.33
2023-07-15T05:42:58.903Z,21.00
2023-07-15T05:45:25.777Z,20.83
2023-07-15T05:47:52.712Z,19.83
2023-07-15T05:50:19.742Z,20.42
2023-07-15T05:52:46.614Z,20.02
2023-07-15T05:55:13.952Z,18.98
2023-07-15T05:57:40.935Z,19.60
2023-07-15T06:00:10.876Z,18.33
2023-07-15T06:02:42.528Z,18.17
2023-07-15T06:05:10.953Z,16.98
2023-07-15T06:07:37.890Z,17.08
2023-07-15T06:10:05.290Z,17.35
2023-07-15T06:12:32.223Z,16.95
2023-07-15T06:14:59.264Z,16.65
2023-07-15T06:17:26.329Z,16.55
2023-07-15T06:19:53.372Z,16.90
2023-07-15T06:22:20.372Z,17.50
2023-07-15T06:24:48.620Z,16.13
2023-07-15T06:27:15.442Z,14.73
2023-07-15T06:29:43.319Z,14.13
2023-07-15T06:32:10.210Z,18.40
2023-07-15T06:34:37.133Z,17.25
2023-07-15T06:37:04.101Z,16.55
2023-07-15T06:39:31.165Z,15.63
2023-07-15T06:41:58.264Z,14.25
2023-07-15T06:44:25.715Z,14.05
2023-07-15T06:46:52.852Z,14.48
2023-07-15T06:49:19.891Z,14.90
2023-07-15T06:51:46.735Z,13.60
2023-07-15T06:54:13.916Z,13.88
2023-07-15T06:56:40.913Z,14.10
2023-07-15T06:59:08.454Z,13.30
2023-07-15T07:01:35.684Z,13.57
2023-07-15T07:04:03.158Z,13.07
2023-07-15T07:06:30.178Z,12.90
2023-07-15T07:08:57.044Z,15.15
2023-07-15T07:11:24.001Z,13.75
2023-07-15T07:13:51.000Z,14.10
2023-07-15T07:16:18.308Z,15.48
2023-07-15T07:18:46.147Z,15.68
2023-07-15T07:21:13.360Z,15.10
2023-07-15T07:23:40.504Z,15.00
2023-07-15T07:26:07.345Z,14.55
2023-07-15T07:28:45.282Z,14.15
2023-07-15T07:31:14.387Z,12.63
2023-07-15T07:33:42.785Z,13.77
2023-07-15T07:36:10.210Z,14.45
2023-07-15T07:38:37.178Z,14.13
2023-07-15T07:41:12.206Z,15.60
2023-07-15T07:43:40.653Z,13.15
2023-07-15T07:48:36.794Z,15.18
2023-07-15T07:51:04.018Z,13.77
2023-07-15T07:53:31.538Z,15.25
2023-07-15T07:55:58.946Z,13.43
2023-07-15T07:58:25.972Z,16.17
2023-07-15T08:00:53.028Z,15.15
2023-07-15T08:03:20.199Z,14.02
2023-07-15T08:05:48.859Z,15.32
2023-07-15T08:08:16.987Z,15.43
2023-07-15T08:10:44.319Z,15.75
2023-07-15T08:13:11.531Z,14.05
2023-07-15T08:15:39.205Z,14.88
2023-07-15T08:18:07.920Z,15.30
2023-07-15T08:20:35.535Z,14.48
2023-07-15T08:23:02.628Z,14.98
2023-07-15T08:25:30.530Z,15.40
2023-07-15T08:27:57.672Z,15.80
2023-07-15T08:30:24.715Z,15.43
2023-07-15T08:32:52.134Z,13.48
2023-07-15T08:35:19.097Z,14.35
2023-07-15T08:37:45.963Z,14.98
2023-07-15T08:40:13.812Z,12.20
2023-07-15T08:42:41.652Z,13.00
2023-07-15T08:45:09.099Z,12.60
2023-07-15T08:47:37.680Z,14.48
2023-07-15T08:50:11.428Z,15.00
2023-07-15T08:52:39.704Z,14.45
2023-07-15T08:57:35.949Z,15.45
2023-07-15T09:00:11.680Z,11.85
2023-07-15T09:02:39.719Z,11.68
2023-07-15T09:07:49.998Z,11.10
2023-07-15T09:10:17.052Z,13.45
2023-07-15T09:12:48.143Z,12.60
2023-07-15T09:15:15.590Z,11.52
2023-07-15T09:17:51.040Z,12.45
2023-07-15T09:20:21.757Z,12.55
2023-07-15T09:22:57.353Z,12.32
2023-07-15T09:25:25.602Z,12.25
2023-07-15T09:30:21.167Z,15.60
2023-07-15T09:32:48.745Z,14.18
2023-07-15T09:35:16.000Z,13.93
2023-07-15T09:37:43.038Z,15.65
2023-07-15T09:40:10.481Z,12.75
2023-07-15T09:42:56.025Z,11.93
2023-07-15T09:45:34.467Z,13.25
2023-07-15T09:48:02.566Z,12.25
2023-07-15T09:50:29.968Z,10.98
2023-07-15T09:52:59.561Z,12.23
2023-07-15T09:55:28.111Z,9.60
2023-07-15T09:58:01.825Z,12.43
2023-07-15T10:00:33.411Z,13.85
2023-07-15T10:03:02.643Z,12.63
2023-07-15T10:05:30.077Z,14.13
2023-07-15T10:07:57.101Z,9.93
2023-07-15T10:10:24.041Z,13.15
2023-07-15T10:12:51.877Z,11.85
2023-07-15T10:15:19.282Z,14.88
2023-07-15T10:17:48.181Z,11.10
2023-07-15T10:20:19.729Z,11.77
2023-07-15T10:22:49.316Z,8.55
2023-07-15T10:25:17.271Z,9.80
2023-07-15T10:27:44.352Z,9.85
2023-07-15T10:30:25.219Z,12.77
2023-07-15T10:35:43.313Z,9.18
2023-07-15T10:38:27.816Z,9.30
2023-07-15T10:41:01.210Z,12.38
2023-07-15T10:43:34.362Z,10.68
2023-07-15T10:46:08.537Z,12.15
2023-07-15T10:48:36.559Z,12.20
2023-07-15T10:51:11.577Z,10.35
2023-07-15T10:53:39.419Z,10.00
2023-07-15T10:56:07.410Z,9.65
2023-07-15T10:58:36.006Z,10.70
2023-07-15T11:01:08.039Z,11.90
2023-07-15T11:03:43.399Z,13.65
2023-07-15T11:06:11.375Z,9.27
2023-07-15T11:11:11.368Z,7.75
2023-07-15T11:13:40.500Z,11.05
2023-07-15T11:16:07.976Z,12.10
2023-07-15T11:18:35.102Z,10.15
2023-07-15T11:21:02.760Z,8.60
2023-07-15T11:23:30.740Z,7.65
2023-07-15T11:28:25.970Z,6.63
2023-07-15T11:30:53.214Z,8.90
2023-07-15T11:33:20.214Z,8.05
2023-07-15T11:35:47.518Z,8.45
2023-07-15T11:38:28.888Z,7.55
2023-07-15T11:40:57.429Z,8.52
2023-07-15T11:43:26.167Z,10.80
2023-07-15T11:45:57.717Z,9.18
2023-07-15T11:48:26.773Z,8.82
2023-07-15T11:51:09.019Z,7.82
2023-07-15T11:53:38.325Z,6.90
2023-07-15T11:56:07.269Z,7.45
2023-07-15T11:58:46.584Z,8.32
2023-07-15T12:01:18.897Z,7.68
2023-07-15T12:03:47.134Z,10.18
2023-07-15T12:06:28.763Z,9.32
2023-07-15T12:09:07.255Z,10.75
2023-07-15T12:11:35.699Z,10.50
2023-07-15T12:14:04.076Z,10.65
2023-07-15T12:16:32.549Z,9.88
2023-07-15T12:19:01.366Z,12.35
2023-07-15T12:21:28.967Z,8.73
2023-07-15T12:23:59.443Z,9.55
2023-07-15T12:26:26.674Z,8.88
2023-07-15T12:28:53.745Z,8.85
2023-07-15T12:31:20.972Z,9.77
2023-07-15T12:33:48.236Z,8.05
2023-07-15T12:36:17.214Z,8.05
2023-07-15T12:38:45.291Z,8.70
2023-07-15T12:41:13.879Z,8.65
2023-07-15T12:43:41.770Z,9.70
2023-07-15T12:48:37.219Z,7.28
2023-07-15T12:51:04.162Z,8.10
2023-07-15T12:53:31.072Z,8.20
2023-07-15T12:55:57.992Z,8.93
2023-07-15T12:58:25.056Z,7.35
2023-07-15T13:00:52.028Z,8.05
2023-07-15T13:03:19.702Z,7.60
2023-07-15T13:05:46.972Z,7.45
2023-07-15T13:08:16.502Z,7.80
2023-07-15T13:10:46.563Z,6.70
2023-07-15T13:13:13.659Z,7.47
2023-07-15T13:15:45.552Z,7.88
2023-07-15T13:18:13.748Z,7.63
2023-07-15T13:20:40.801Z,6.78
2023-07-15T13:23:09.713Z,7.43
2023-07-15T13:25:37.042Z,7.45
2023-07-15T13:28:05.034Z,7.95
2023-07-15T13:30:31.977Z,9.35
2023-07-15T13:32:58.998Z,7.50
2023-07-15T13:35:26.215Z,7.72
2023-07-15T13:37:53.121Z,7.25
2023-07-15T13:40:21.051Z,6.80
2023-07-15T13:42:50.770Z,7.10
2023-07-15T13:45:18.357Z,6.55
2023-07-15T13:47:45.745Z,7.47
2023-07-15T13:50:12.924Z,7.75
2023-07-15T13:52:39.915Z,7.78
2023-07-15T13:55:07.228Z,7.90
2023-07-15T13:57:34.085Z,7.13
2023-07-15T14:00:00.912Z,6.88
2023-07-15T14:02:27.883Z,7.10
2023-07-15T14:04:54.746Z,7.45
2023-07-15T14:07:21.740Z,6.78
2023-07-15T14:09:49.106Z,6.85
2023-07-15T14:12:16.039Z,7.95
2023-07-15T14:14:42.989Z,7.80
2023-07-15T14:17:10.062Z,7.20
2023-07-15T14:19:36.972Z,7.82
2023-07-15T14:22:15.212Z,7.30
2023-07-15T14:24:42.773Z,7.15
2023-07-15T14:27:11.608Z,7.32
2023-07-15T14:29:41.626Z,6.50
2023-07-15T14:32:08.735Z,7.47
2023-07-15T14:34:36.085Z,7.10
2023-07-15T14:37:03.064Z,6.72
2023-07-15T14:39:30.164Z,6.85
2023-07-15T14:41:56.975Z,7.35
2023-07-15T14:44:23.893Z,6.85
2023-07-15T14:46:50.743Z,6.68
2023-07-15T14:49:17.655Z,7.30
2023-07-15T14:51:44.512Z,7.15
2023-07-15T14:54:11.750Z,7.63
2023-07-15T14:56:38.650Z,6.32
2023-07-15T14:59:05.580Z,6.70
2023-07-15T15:01:34.729Z,6.55
2023-07-15T15:04:01.832Z,6.45
2023-07-15T15:06:29.254Z,8.75
2023-07-15T15:08:56.171Z,7.20
2023-07-15T15:11:23.726Z,6.38
2023-07-15T15:13:50.749Z,6.72
2023-07-15T15:16:18.120Z,6.35
2023-07-15T15:18:46.710Z,6.55
2023-07-15T15:21:15.462Z,6.63
2023-07-15T15:23:43.235Z,7.25
2023-07-15T15:26:12.388Z,6.40
2023-07-15T15:28:43.782Z,6.43
2023-07-15T15:31:11.255Z,6.55
2023-07-15T15:33:38.425Z,6.28
2023-07-15T15:36:05.552Z,6.10
2023-07-15T15:38:32.453Z,8.27
2023-07-15T15:40:59.344Z,6.15
2023-07-15T15:43:26.284Z,6.78
2023-07-15T15:45:53.693Z,6.95
2023-07-15T15:48:20.666Z,6.78
2023-07-15T15:50:47.573Z,6.35
2023-07-15T15:53:14.625Z,6.78
2023-07-15T15:55:41.610Z,5.97
2023-07-15T15:58:08.929Z,6.45
2023-07-15T16:00:36.105Z,6.65
2023-07-15T16:03:04.458Z,6.40
2023-07-15T16:05:31.610Z,6.82
2023-07-15T16:07:58.485Z,7.05
2023-07-15T16:10:25.388Z,7.13
2023-07-15T16:12:52.320Z,6.13
2023-07-15T16:15:19.388Z,6.40
2023-07-15T16:17:46.368Z,6.95
2023-07-15T16:20:13.427Z,6.82
2023-07-15T16:22:40.801Z,6.30
2023-07-15T16:25:08.210Z,6.13
2023-07-15T16:27:35.284Z,6.50
2023-07-15T16:30:02.243Z,6.70
2023-07-15T16:32:29.285Z,6.35
2023-07-15T16:34:57.721Z,5.68
2023-07-15T16:37:25.187Z,5.90
2023-07-15T16:39:52.556Z,6.63
2023-07-15T16:42:19.503Z,6.70
2023-07-15T16:44:46.715Z,6.70
2023-07-15T16:47:13.921Z,6.63
2023-07-15T16:49:44.259Z,6.65
2023-07-15T16:52:11.293Z,6.75
2023-07-15T16:54:38.277Z,6.57
2023-07-15T16:57:05.336Z,6.15
2023-07-15T16:59:32.381Z,6.03
2023-07-15T17:01:59.282Z,6.80
2023-07-15T17:04:26.257Z,6.88
2023-07-15T17:06:53.501Z,6.55
2023-07-15T17:09:20.448Z,6.47
2023-07-15T17:11:47.299Z,6.55
2023-07-15T17:14:14.261Z,6.63
2023-07-15T17:16:42.128Z,6.07
2023-07-15T17:19:09.166Z,7.00
2023-07-15T17:21:36.270Z,6.55
2023-07-15T17:24:03.302Z,6.38
2023-07-15T17:26:30.533Z,6.65
2023-07-15T17:28:58.421Z,6.93
2023-07-15T17:31:25.332Z,6.63
2023-07-15T17:33:52.352Z,6.88
2023-07-15T17:36:20.803Z,7.05
2023-07-15T17:38:47.880Z,6.65
2023-07-15T17:41:14.933Z,6.88
2023-07-15T17:43:42.757Z,6.95
2023-07-15T17:46:09.866Z,6.45
2023-07-15T17:48:36.906Z,6.88
2023-07-15T17:51:03.905Z,6.43
2023-07-15T17:53:30.951Z,6.47
2023-07-15T17:55:57.903Z,6.38
2023-07-15T17:58:24.985Z,7.25
2023-07-15T18:00:51.931Z,6.88
2023-07-15T18:03:18.963Z,7.38
2023-07-15T18:05:45.957Z,6.57
2023-07-15T18:08:14.946Z,8.88
2023-07-15T18:10:44.221Z,7.40
2023-07-15T18:13:11.119Z,7.30
2023-07-15T18:15:38.123Z,7.25
2023-07-15T18:18:05.265Z,7.28
2023-07-15T18:20:32.175Z,7.07
2023-07-15T18:22:59.069Z,7.90
2023-07-15T18:25:27.292Z,7.50
2023-07-15T18:27:54.278Z,7.03
2023-07-15T18:30:24.684Z,7.25
2023-07-15T18:32:51.683Z,7.55
2023-07-15T18:35:18.998Z,7.35
2023-07-15T18:37:45.929Z,8.35
2023-07-15T18:40:13.037Z,7.93
2023-07-15T18:42:39.846Z,7.88
2023-07-15T18:45:07.429Z,8.07
2023-07-15T18:47:34.479Z,7.50
2023-07-15T18:50:01.670Z,8.13
2023-07-15T18:52:28.669Z,8.20
2023-07-15T18:54:55.582Z,8.50
2023-07-15T18:57:23.598Z,7.85
2023-07-15T18:59:51.552Z,8.57
2023-07-15T19:02:18.573Z,8.88
2023-07-15T19:04:48.383Z,9.05
2023-07-15T19:07:15.289Z,9.30
2023-07-15T19:09:42.198Z,9.45
2023-07-15T19:12:10.353Z,9.93
2023-07-15T19:14:37.587Z,10.50
2023-07-15T19:17:04.979Z,9.95
2023-07-15T19:19:32.323Z,9.60
2023-07-15T19:21:59.138Z,9.15
2023-07-15T19:24:26.008Z,9.38
2023-07-15T19:26:53.498Z,8.98
2023-07-15T19:29:20.516Z,9.88
2023-07-15T19:31:47.504Z,10.32
2023-07-15T19:34:14.925Z,8.70
2023-07-15T19:36:41.815Z,8.52
2023-07-15T19:39:08.820Z,9.45
2023-07-15T19:41:35.907Z,9.43
2023-07-15T19:44:03.362Z,9.95
2023-07-15T19:46:30.529Z,9.35
2023-07-15T19:48:57.424Z,9.88
2023-07-15T19:51:35.611Z,9.48
2023-07-15T19:54:11.399Z,9.38
2023-07-15T19:56:38.306Z,9.63
2023-07-15T19:59:07.043Z,10.00
2023-07-15T20:01:35.043Z,11.05
2023-07-15T20:04:04.016Z,9.90
2023-07-15T20:06:31.326Z,10.95
2023-07-15T20:08:58.503Z,10.48
2023-07-15T20:11:25.366Z,10.93
2023-07-15T20:13:52.363Z,11.20
2023-07-15T20:16:19.512Z,12.38
2023-07-15T20:18:46.902Z,11.93
2023-07-15T20:21:13.861Z,11.98
2023-07-15T20:23:40.999Z,11.80
2023-07-15T20:26:07.829Z,10.75
2023-07-15T20:28:34.712Z,12.23
2023-07-15T20:31:02.982Z,11.70
2023-07-15T20:33:30.554Z,11.40
2023-07-15T20:35:57.399Z,12.45
2023-07-15T20:38:25.194Z,12.10
2023-07-15T20:40:56.915Z,12.02
2023-07-15T20:43:26.131Z,13.48
2023-07-15T20:45:53.300Z,12.75
2023-07-15T20:48:20.445Z,12.98
2023-07-15T20:50:47.354Z,14.02
2023-07-15T20:53:14.330Z,13.35
2023-07-15T20:55:42.022Z,14.15
2023-07-15T20:58:09.338Z,15.55
2023-07-15T21:00:36.548Z,14.27
2023-07-15T21:03:03.546Z,14.90
2023-07-15T21:05:30.946Z,14.20
2023-07-15T21:07:57.833Z,14.90
2023-07-15T21:10:24.888Z,15.48
2023-07-15T21:12:51.882Z,15.82
2023-07-15T21:15:19.667Z,15.90
2023-07-15T21:17:46.509Z,17.30
2023-07-15T21:20:16.368Z,18.83
2023-07-15T21:22:43.937Z,18.08
2023-07-15T21:25:11.049Z,17.92
2023-07-15T21:27:38.073Z,18.27
2023-07-15T21:30:05.684Z,19.25
2023-07-15T21:32:32.782Z,18.38
2023-07-15T21:34:59.918Z,16.35
2023-07-15T21:37:26.806Z,18.48
2023-07-15T21:39:53.709Z,19.08
2023-07-15T21:42:20.645Z,21.00
2023-07-15T21:44:47.547Z,18.63
2023-07-15T21:47:14.380Z,18.55
2023-07-15T21:49:41.288Z,18.70
2023-07-15T21:52:08.455Z,18.92
2023-07-15T21:54:35.359Z,18.65
2023-07-15T21:57:02.410Z,18.48
2023-07-15T21:59:29.316Z,18.63
2023-07-15T22:01:56.245Z,17.30
2023-07-15T22:04:23.479Z,19.85
2023-07-15T22:06:50.474Z,18.60
2023-07-15T22:09:18.102Z,17.80
2023-07-15T22:11:45.336Z,17.75
2023-07-15T22:14:12.305Z,17.08
2023-07-15T22:16:39.307Z,17.45
2023-07-15T22:19:06.314Z,16.77
2023-07-15T22:21:35.657Z,17.50
2023-07-15T22:24:03.012Z,16.15
2023-07-15T22:26:31.886Z,15.00
2023-07-15T22:28:58.938Z,19.38
2023-07-15T22:31:26.006Z,16.02
2023-07-15T22:33:53.057Z,15.88
2023-07-15T22:36:20.126Z,15.55
2023-07-15T22:38:47.140Z,17.30
2023-07-15T22:41:14.047Z,17.98
2023-07-15T22:43:40.970Z,18.83
2023-07-15T22:46:08.057Z,20.73
2023-07-15T22:48:35.054Z,21.90
2023-07-15T22:51:01.957Z,21.63
2023-07-15T22:53:28.816Z,20.90
2023-07-15T22:55:55.982Z,21.70
2023-07-15T22:58:23.288Z,21.63
2023-07-15T23:00:54.459Z,22.13
2023-07-15T23:03:24.273Z,23.30
2023-07-15T23:05:51.464Z,22.50
2023-07-15T23:08:18.527Z,22.02
2023-07-15T23:10:48.239Z,23.00
2023-07-15T23:13:15.429Z,23.95
2023-07-15T23:15:42.339Z,25.15
2023-07-15T23:18:09.622Z,26.02
2023-07-15T23:20:36.654Z,25.27
2023-07-15T23:23:15.689Z,26.77
2023-07-15T23:25:44.349Z,26.48
2023-07-15T23:28:11.419Z,28.13
2023-07-15T23:30:38.420Z,28.42
2023-07-15T23:33:05.507Z,29.42
2023-07-15T23:35:32.693Z,28.40
2023-07-15T23:38:00.046Z,29.00
2023-07-15T23:40:27.317Z,27.90
2023-07-15T23:42:54.297Z,27.52
2023-07-15T23:45:21.145Z,25.92
2023-07-15T23:47:48.122Z,26.17
2023-07-15T23:50:15.156Z,23.48
2023-07-15T23:52:42.092Z,24.23
2023-07-15T23:55:09.669Z,23.63
2023-07-15T23:57:36.450Z,25.55
